Falera, Switzerland
Current Conditions -  °F | °C
As of 5:20 PM on Tuesday 25 Nov 2014 (Local Time) from LSZS Reporting Station
Broken Clouds Broken Clouds  
Wind Chill: 31°   Ceiling: 9000
Heat Index: 36°   Visibility: 6mi
Dew Point: 36°   Wind: 6mph
Humidity: 100%   Direction: 190°S
Pressure: 30.12"   Gusts: NA
Location:  46.8°N, 9.23°E
Report Text: LSZS 251620Z 19005KT 9999 SCT040 BKN090 02/02 Q1020
Loading
Personal Weather Stations






























Interactive Weather Map New forecast layout! Learn more

10-Day Weather Forecast

Advertisements
Track Severe Weather on mobile